Time;durP1;ratioP1;P1;durP2;ratioP2;P2;SDS_P1;SDS_P2;PMS_P1;PMS_P2;Temp;Humidity;BMP_temperature;BMP_pressure;BME280_temperature;BME280_humidity;BME280_pressure;Samples;Min_cycle;Max_cycle;Signal;HPM_P1;HPM_P2
2024/04/09 00:01:55;;;;;;;1.30;1.20;;;;;;;;;;5389148;26;20260;-74
2024/04/09 00:04:23;;;;;;;0.95;0.95;;;;;;;;;;5379039;26;20315;-74
2024/04/09 00:06:49;;;;;;;0.38;0.38;;;;;;;;;;5385420;26;20255;-74
2024/04/09 00:09:20;;;;;;;0.40;0.40;;;;;;;;;;5362498;26;20258;-74
2024/04/09 00:11:49;;;;;;;0.30;0.30;;;;;;;;;;5414474;26;20295;-74
2024/04/09 00:14:16;;;;;;;0.40;0.40;;;;;;;;;;5381269;26;20267;-74
2024/04/09 00:16:45;;;;;;;0.88;0.88;;;;;;;;;;5377455;26;20301;-74
2024/04/09 00:19:13;;;;;;;0.60;0.60;;;;;;;;;;5381897;26;20331;-74
2024/04/09 00:21:40;;;;;;;0.20;0.20;;;;;;;;;;5386956;26;20314;-73
2024/04/09 00:24:07;;;;;;;0.30;0.30;;;;;;;;;;5357322;26;20296;-73
2024/04/09 00:26:35;;;;;;;0.35;0.35;;;;;;;;;;5356960;26;20296;-74
2024/04/09 00:29:02;;;;;;;0.40;0.40;;;;;;;;;;5358497;26;20294;-74
2024/04/09 00:31:28;;;;;;;0.47;0.47;;;;;;;;;;5385471;26;20307;-76
2024/04/09 00:34:17;;;;;;;0.50;0.50;;;;;;;;;;5377559;26;20336;-77
2024/04/09 00:36:45;;;;;;;0.40;0.40;;;;;;;;;;5393622;26;20257;-76
2024/04/09 00:39:22;;;;;;;0.30;0.30;;;;;;;;;;5382817;26;20252;-76
2024/04/09 00:41:49;;;;;;;0.40;0.40;;;;;;;;;;5381473;26;20264;-76
2024/04/09 00:44:16;;;;;;;0.30;0.30;;;;;;;;;;5387863;26;20288;-76
2024/04/09 00:46:44;;;;;;;0.30;0.30;;;;;;;;;;5372274;26;20384;-76
2024/04/09 00:49:13;;;;;;;0.38;0.38;;;;;;;;;;5379925;26;20810;-76
2024/04/09 00:51:44;;;;;;;0.20;0.20;;;;;;;;;;5393982;26;20261;-76
2024/04/09 00:54:11;;;;;;;0.88;0.68;;;;;;;;;;5371243;26;20297;-76
2024/04/09 00:56:40;;;;;;;1.98;1.15;;;;;;;;;;5387477;26;20298;-76
2024/04/09 00:59:06;;;;;;;0.40;0.40;;;;;;;;;;5377801;26;20316;-77
2024/04/09 01:01:34;;;;;;;0.38;0.38;;;;;;;;;;5394423;26;20298;-75
2024/04/09 01:04:00;;;;;;;0.30;0.30;;;;;;;;;;5388617;26;20299;-76
2024/04/09 01:06:27;;;;;;;0.30;0.30;;;;;;;;;;5380943;26;20351;-76
2024/04/09 01:08:54;;;;;;;0.40;0.40;;;;;;;;;;5406538;26;20735;-76
2024/04/09 01:11:20;;;;;;;0.40;0.40;;;;;;;;;;5372287;26;20639;-76
2024/04/09 01:13:47;;;;;;;0.40;0.40;;;;;;;;;;5377557;26;20759;-76
2024/04/09 01:16:13;;;;;;;0.30;0.30;;;;;;;;;;5396502;26;20317;-75
2024/04/09 01:18:40;;;;;;;1.65;1.38;;;;;;;;;;5393642;26;20268;-76
2024/04/09 01:21:08;;;;;;;0.40;0.40;;;;;;;;;;5372539;26;20359;-76
2024/04/09 01:23:34;;;;;;;0.30;0.30;;;;;;;;;;5370273;26;20363;-76
2024/04/09 01:26:01;;;;;;;0.82;0.82;;;;;;;;;;5366734;26;20261;-75
2024/04/09 01:28:28;;;;;;;0.35;0.35;;;;;;;;;;5373298;26;20731;-76
2024/04/09 01:30:55;;;;;;;0.40;0.40;;;;;;;;;;5380353;26;20598;-76
2024/04/09 01:33:22;;;;;;;0.40;0.40;;;;;;;;;;5414743;26;20827;-76
2024/04/09 01:35:50;;;;;;;1.80;1.65;;;;;;;;;;5382049;26;20262;-76
2024/04/09 01:38:18;;;;;;;0.40;0.40;;;;;;;;;;5390905;26;21411;-76
2024/04/09 01:40:44;;;;;;;0.55;0.55;;;;;;;;;;5429265;26;20738;-76
2024/04/09 01:43:12;;;;;;;1.35;0.88;;;;;;;;;;5398767;26;20652;-76
2024/04/09 01:45:38;;;;;;;5.28;2.70;;;;;;;;;;5412718;26;20299;-76
2024/04/09 01:48:09;;;;;;;0.40;0.40;;;;;;;;;;5421421;26;20336;-76
2024/04/09 01:50:37;;;;;;;2.40;2.00;;;;;;;;;;5406892;26;20290;-76
2024/04/09 01:53:05;;;;;;;1.05;1.02;;;;;;;;;;5377041;26;20852;-76
2024/04/09 01:55:31;;;;;;;0.32;0.32;;;;;;;;;;5392600;26;20360;-76
2024/04/09 01:57:58;;;;;;;0.30;0.30;;;;;;;;;;5413932;26;20698;-75
2024/04/09 02:00:25;;;;;;;0.30;0.30;;;;;;;;;;5379237;26;20613;-76
2024/04/09 02:02:52;;;;;;;0.30;0.30;;;;;;;;;;5368423;26;20260;-76
2024/04/09 02:05:20;;;;;;;0.30;0.30;;;;;;;;;;5367438;26;20280;-76
2024/04/09 02:07:48;;;;;;;0.20;0.20;;;;;;;;;;5366606;26;20261;-76
2024/04/09 02:10:15;;;;;;;1.10;1.10;;;;;;;;;;5367887;26;21137;-76
2024/04/09 02:12:41;;;;;;;0.73;0.73;;;;;;;;;;5371503;26;20305;-76
2024/04/09 02:15:12;;;;;;;6.40;2.05;;;;;;;;;;5360620;26;20306;-76
2024/04/09 02:17:40;;;;;;;0.43;0.43;;;;;;;;;;5357039;26;20347;-76
2024/04/09 02:20:30;;;;;;;0.60;0.60;;;;;;;;;;5363050;26;20296;-75
2024/04/09 02:22:57;;;;;;;0.40;0.40;;;;;;;;;;5358506;26;20261;-75
2024/04/09 02:25:23;;;;;;;5.47;3.08;;;;;;;;;;5360941;26;20306;-76
2024/04/09 02:27:50;;;;;;;0.30;0.30;;;;;;;;;;5357010;26;20264;-76
2024/04/09 02:30:17;;;;;;;0.50;0.50;;;;;;;;;;5354055;26;20693;-75
2024/04/09 02:32:43;;;;;;;0.32;0.32;;;;;;;;;;5385971;26;20255;-75
2024/04/09 02:35:10;;;;;;;0.32;0.32;;;;;;;;;;5370192;26;20259;-75
2024/04/09 02:37:39;;;;;;;1.40;1.30;;;;;;;;;;5384987;26;20270;-75
2024/04/09 02:40:07;;;;;;;0.45;0.45;;;;;;;;;;5357166;26;20261;-75
2024/04/09 02:42:35;;;;;;;1.30;1.20;;;;;;;;;;5360890;26;20626;-75
2024/04/09 02:45:04;;;;;;;3.65;1.63;;;;;;;;;;5360471;26;20297;-76
2024/04/09 02:47:30;;;;;;;1.20;1.20;;;;;;;;;;5362050;26;20361;-76
2024/04/09 02:49:57;;;;;;;1.35;1.30;;;;;;;;;;5374074;26;20258;-75
2024/04/09 02:52:24;;;;;;;1.33;1.15;;;;;;;;;;5363239;26;20629;-75
2024/04/09 02:54:51;;;;;;;5.00;0.88;;;;;;;;;;5365676;26;20266;-76
2024/04/09 02:57:18;;;;;;;0.70;0.70;;;;;;;;;;5362705;26;20262;-77
2024/04/09 02:59:44;;;;;;;0.40;0.40;;;;;;;;;;5357316;26;20263;-76
2024/04/09 03:02:11;;;;;;;0.45;0.45;;;;;;;;;;5356618;26;20905;-76
2024/04/09 03:04:38;;;;;;;0.30;0.30;;;;;;;;;;5361099;26;20289;-76
2024/04/09 03:07:04;;;;;;;0.30;0.30;;;;;;;;;;5359477;26;20255;-77
2024/04/09 03:09:31;;;;;;;2.92;2.35;;;;;;;;;;5388449;26;20318;-76
2024/04/09 03:11:58;;;;;;;0.30;0.30;;;;;;;;;;5357905;26;20258;-77
2024/04/09 03:14:28;;;;;;;0.30;0.30;;;;;;;;;;5359191;26;20292;-77
2024/04/09 03:16:55;;;;;;;0.30;0.30;;;;;;;;;;5385013;26;20253;-76
2024/04/09 03:19:23;;;;;;;0.32;0.32;;;;;;;;;;5363035;26;20266;-77
2024/04/09 03:21:49;;;;;;;0.30;0.30;;;;;;;;;;5399664;26;20261;-76
2024/04/09 03:24:17;;;;;;;1.30;1.20;;;;;;;;;;5392264;26;20273;-77
2024/04/09 03:26:43;;;;;;;0.30;0.30;;;;;;;;;;5387943;26;20371;-77
2024/04/09 03:29:10;;;;;;;0.30;0.30;;;;;;;;;;5391741;26;20252;-77
2024/04/09 03:31:36;;;;;;;0.30;0.30;;;;;;;;;;5398247;26;20265;-77
2024/04/09 03:34:03;;;;;;;0.20;0.20;;;;;;;;;;5395452;26;20373;-77
2024/04/09 03:36:30;;;;;;;0.40;0.40;;;;;;;;;;5390770;26;20313;-76
2024/04/09 03:38:57;;;;;;;0.40;0.40;;;;;;;;;;5394758;26;20749;-76
2024/04/09 03:41:24;;;;;;;0.32;0.32;;;;;;;;;;5406452;26;20370;-76
2024/04/09 03:43:51;;;;;;;1.33;1.23;;;;;;;;;;5395517;26;20292;-75
2024/04/09 03:46:19;;;;;;;0.30;0.30;;;;;;;;;;5394308;26;20292;-77
2024/04/09 03:48:46;;;;;;;1.27;1.27;;;;;;;;;;5392175;26;20304;-77
2024/04/09 03:51:14;;;;;;;0.40;0.40;;;;;;;;;;5384531;26;20261;-78
2024/04/09 03:53:42;;;;;;;0.40;0.40;;;;;;;;;;5413756;26;20250;-77
2024/04/09 03:56:11;;;;;;;0.30;0.30;;;;;;;;;;5390488;26;20301;-77
2024/04/09 03:58:39;;;;;;;0.55;0.52;;;;;;;;;;5395370;26;20274;-77
2024/04/09 04:01:08;;;;;;;0.43;0.43;;;;;;;;;;5388424;26;20257;-78
2024/04/09 04:03:40;;;;;;;2.83;1.23;;;;;;;;;;5393938;26;20253;-78
2024/04/09 04:06:07;;;;;;;0.40;0.40;;;;;;;;;;5393184;26;20369;-76
2024/04/09 04:08:37;;;;;;;0.50;0.50;;;;;;;;;;5393969;26;20257;-77
2024/04/09 04:11:14;;;;;;;0.82;0.82;;;;;;;;;;5391572;26;20820;-77
2024/04/09 04:13:41;;;;;;;0.40;0.40;;;;;;;;;;5395112;26;20264;-79
2024/04/09 04:16:12;;;;;;;13.25;4.47;;;;;;;;;;5408699;26;20294;-77
2024/04/09 04:18:44;;;;;;;0.30;0.30;;;;;;;;;;5400474;26;20296;-77
2024/04/09 04:21:19;;;;;;;0.47;0.47;;;;;;;;;;5424839;26;20258;-77
2024/04/09 04:23:48;;;;;;;0.68;0.68;;;;;;;;;;5393781;26;20332;-77
2024/04/09 04:26:25;;;;;;;0.40;0.40;;;;;;;;;;5392481;26;20269;-80
2024/04/09 04:28:53;;;;;;;0.30;0.30;;;;;;;;;;5403946;26;20293;-77
2024/04/09 04:31:21;;;;;;;0.40;0.40;;;;;;;;;;5392752;26;20261;-78
2024/04/09 04:33:51;;;;;;;0.40;0.40;;;;;;;;;;5392856;26;20305;-76
2024/04/09 04:36:20;;;;;;;0.30;0.30;;;;;;;;;;5390637;26;20268;-76
2024/04/09 04:38:48;;;;;;;0.38;0.38;;;;;;;;;;5386469;26;20307;-76
2024/04/09 04:41:17;;;;;;;0.50;0.50;;;;;;;;;;5391653;26;20265;-77
2024/04/09 04:43:43;;;;;;;0.45;0.45;;;;;;;;;;5397405;26;20311;-74
2024/04/09 04:46:10;;;;;;;0.40;0.40;;;;;;;;;;5403122;26;20260;-74
2024/04/09 04:48:38;;;;;;;0.30;0.30;;;;;;;;;;5426261;26;20256;-75
2024/04/09 04:51:06;;;;;;;0.38;0.38;;;;;;;;;;5399968;26;20258;-75
2024/04/09 04:53:33;;;;;;;0.30;0.30;;;;;;;;;;5430620;26;20782;-74
2024/04/09 04:56:03;;;;;;;0.38;0.38;;;;;;;;;;5405982;26;20257;-76
2024/04/09 04:58:29;;;;;;;0.30;0.30;;;;;;;;;;5412207;26;20260;-74
2024/04/09 05:00:56;;;;;;;0.32;0.32;;;;;;;;;;5394418;26;20304;-76
2024/04/09 05:03:23;;;;;;;5.97;3.22;;;;;;;;;;5393264;26;20329;-76
2024/04/09 05:05:50;;;;;;;0.85;0.85;;;;;;;;;;5408350;26;20288;-77
2024/04/09 05:08:17;;;;;;;0.30;0.30;;;;;;;;;;5380314;26;20321;-77
2024/04/09 05:10:44;;;;;;;0.28;0.28;;;;;;;;;;5422698;26;20308;-77
2024/04/09 05:13:11;;;;;;;0.30;0.30;;;;;;;;;;5419101;26;20266;-76
2024/04/09 05:15:37;;;;;;;1.00;1.00;;;;;;;;;;5399620;26;20299;-78
2024/04/09 05:18:06;;;;;;;0.30;0.30;;;;;;;;;;5396682;26;20258;-76
2024/04/09 05:20:34;;;;;;;0.30;0.30;;;;;;;;;;5355567;26;20258;-77
2024/04/09 05:23:02;;;;;;;0.38;0.38;;;;;;;;;;5355210;26;20331;-76
2024/04/09 05:25:32;;;;;;;0.32;0.32;;;;;;;;;;5357141;26;20303;-75
2024/04/09 05:28:00;;;;;;;0.45;0.45;;;;;;;;;;5359447;26;20321;-76
2024/04/09 05:30:27;;;;;;;0.40;0.40;;;;;;;;;;5356212;26;20288;-74
2024/04/09 05:32:54;;;;;;;0.45;0.45;;;;;;;;;;5357279;26;20333;-73
2024/04/09 05:35:21;;;;;;;0.30;0.30;;;;;;;;;;5349121;26;20265;-76
2024/04/09 05:37:47;;;;;;;0.30;0.30;;;;;;;;;;5353146;26;20263;-76
2024/04/09 05:40:16;;;;;;;0.30;0.30;;;;;;;;;;5383377;26;20342;-74
2024/04/09 05:42:46;;;;;;;0.30;0.30;;;;;;;;;;5355777;26;20738;-76
2024/04/09 05:45:18;;;;;;;0.77;0.77;;;;;;;;;;5382560;26;20859;-73
2024/04/09 05:47:44;;;;;;;0.40;0.40;;;;;;;;;;5349637;26;20255;-74
2024/04/09 05:50:11;;;;;;;0.20;0.20;;;;;;;;;;5351242;26;20343;-76
2024/04/09 05:52:38;;;;;;;0.28;0.28;;;;;;;;;;5348814;26;20299;-76
2024/04/09 05:55:05;;;;;;;0.30;0.30;;;;;;;;;;5359974;26;20314;-75
2024/04/09 05:57:36;;;;;;;0.30;0.30;;;;;;;;;;5380152;26;20266;-74
2024/04/09 06:00:09;;;;;;;0.43;0.43;;;;;;;;;;5350273;26;20250;-73
2024/04/09 06:02:36;;;;;;;0.57;0.57;;;;;;;;;;5353670;26;20257;-73
2024/04/09 06:05:03;;;;;;;8.48;4.57;;;;;;;;;;5357323;26;20288;-75
2024/04/09 06:07:30;;;;;;;0.30;0.30;;;;;;;;;;5355231;26;20376;-74
2024/04/09 06:09:58;;;;;;;0.85;0.85;;;;;;;;;;5348313;26;20262;-73
2024/04/09 06:12:25;;;;;;;0.30;0.30;;;;;;;;;;5347466;26;20259;-73
2024/04/09 06:14:53;;;;;;;0.30;0.30;;;;;;;;;;5352816;26;20266;-73
2024/04/09 06:17:20;;;;;;;0.40;0.40;;;;;;;;;;5358443;26;20311;-73
2024/04/09 06:19:46;;;;;;;0.30;0.30;;;;;;;;;;5350065;26;20376;-73
2024/04/09 06:22:14;;;;;;;0.50;0.50;;;;;;;;;;5344006;26;21702;-73
2024/04/09 06:24:41;;;;;;;0.30;0.30;;;;;;;;;;5352918;26;20325;-73
2024/04/09 06:27:08;;;;;;;0.30;0.30;;;;;;;;;;5346522;26;20262;-73
2024/04/09 06:29:36;;;;;;;2.53;2.28;;;;;;;;;;5356385;26;20261;-73
2024/04/09 06:32:04;;;;;;;0.30;0.30;;;;;;;;;;5357790;26;20293;-73
2024/04/09 06:34:37;;;;;;;0.30;0.30;;;;;;;;;;5349843;26;20264;-74
2024/04/09 06:37:04;;;;;;;0.57;0.57;;;;;;;;;;5353146;26;20617;-74
2024/04/09 06:39:31;;;;;;;0.75;0.75;;;;;;;;;;5357958;26;20809;-74
2024/04/09 06:42:02;;;;;;;1.67;1.58;;;;;;;;;;5358017;26;20313;-74
2024/04/09 06:44:32;;;;;;;0.30;0.30;;;;;;;;;;5356911;26;20262;-73
2024/04/09 06:47:01;;;;;;;0.30;0.30;;;;;;;;;;5356218;26;20297;-72
2024/04/09 06:49:28;;;;;;;0.30;0.30;;;;;;;;;;5357470;26;20267;-73
2024/04/09 06:51:54;;;;;;;0.30;0.30;;;;;;;;;;5351692;26;20771;-75
2024/04/09 06:54:21;;;;;;;0.30;0.30;;;;;;;;;;5350969;26;20285;-76
2024/04/09 06:56:48;;;;;;;0.30;0.30;;;;;;;;;;5358745;26;20269;-79
2024/04/09 06:59:15;;;;;;;0.30;0.30;;;;;;;;;;5362808;26;20739;-75
2024/04/09 07:01:41;;;;;;;0.30;0.30;;;;;;;;;;5382193;26;20346;-74
2024/04/09 07:04:09;;;;;;;0.37;0.37;;;;;;;;;;5361275;26;20261;-75
2024/04/09 07:06:37;;;;;;;0.43;0.43;;;;;;;;;;5356649;26;20323;-76
2024/04/09 07:09:05;;;;;;;0.30;0.30;;;;;;;;;;5355496;26;20688;-74
2024/04/09 07:11:32;;;;;;;0.30;0.30;;;;;;;;;;5351470;26;20360;-77
2024/04/09 07:14:02;;;;;;;0.30;0.30;;;;;;;;;;5358697;26;20362;-75
2024/04/09 07:16:29;;;;;;;0.30;0.30;;;;;;;;;;5355693;26;20253;-76
2024/04/09 07:18:55;;;;;;;0.30;0.30;;;;;;;;;;5357528;26;20367;-77
2024/04/09 07:21:22;;;;;;;0.30;0.30;;;;;;;;;;5353474;26;20667;-76
2024/04/09 07:23:49;;;;;;;0.30;0.30;;;;;;;;;;5354432;26;20612;-75
2024/04/09 07:26:16;;;;;;;0.30;0.30;;;;;;;;;;5358031;26;20262;-76
2024/04/09 07:28:42;;;;;;;0.30;0.30;;;;;;;;;;5353620;26;20329;-82
2024/04/09 07:31:10;;;;;;;0.30;0.30;;;;;;;;;;5357256;26;20308;-76
2024/04/09 07:33:37;;;;;;;0.30;0.30;;;;;;;;;;5355009;26;20887;-78
2024/04/09 07:36:03;;;;;;;0.30;0.30;;;;;;;;;;5355074;26;20285;-75
2024/04/09 07:38:30;;;;;;;0.30;0.30;;;;;;;;;;5378376;26;20300;-76
2024/04/09 07:40:56;;;;;;;0.30;0.30;;;;;;;;;;5378778;26;20270;-76
2024/04/09 07:43:23;;;;;;;0.30;0.30;;;;;;;;;;5350293;26;20347;-75
2024/04/09 07:45:53;;;;;;;0.30;0.30;;;;;;;;;;5381435;26;20307;-75
2024/04/09 07:48:23;;;;;;;0.30;0.30;;;;;;;;;;5356347;26;20609;-77
2024/04/09 07:50:54;;;;;;;0.20;0.20;;;;;;;;;;5351335;26;20358;-75
2024/04/09 07:53:22;;;;;;;0.30;0.30;;;;;;;;;;5350102;26;20258;-77
2024/04/09 07:55:50;;;;;;;0.20;0.20;;;;;;;;;;5353350;26;20278;-74
2024/04/09 07:58:16;;;;;;;0.20;0.20;;;;;;;;;;5378659;26;20644;-77
2024/04/09 08:00:44;;;;;;;0.20;0.20;;;;;;;;;;5355688;26;20308;-75
2024/04/09 08:03:11;;;;;;;0.30;0.30;;;;;;;;;;5366847;26;20261;-75
2024/04/09 08:05:39;;;;;;;0.30;0.30;;;;;;;;;;5356486;26;20259;-76
2024/04/09 08:08:06;;;;;;;0.30;0.30;;;;;;;;;;5357410;26;20300;-75
2024/04/09 08:10:34;;;;;;;0.30;0.30;;;;;;;;;;5354563;26;20262;-75
2024/04/09 08:13:01;;;;;;;0.30;0.30;;;;;;;;;;5354824;26;20297;-74
2024/04/09 08:15:28;;;;;;;0.30;0.30;;;;;;;;;;5357097;26;20697;-74
2024/04/09 08:17:56;;;;;;;0.20;0.20;;;;;;;;;;5358822;26;20299;-75
2024/04/09 08:20:23;;;;;;;0.20;0.20;;;;;;;;;;5392562;26;20363;-79
2024/04/09 08:22:50;;;;;;;0.30;0.30;;;;;;;;;;5358379;26;20262;-74
2024/04/09 08:25:18;;;;;;;1.57;1.47;;;;;;;;;;5359408;26;20262;-77
2024/04/09 08:27:45;;;;;;;0.47;0.47;;;;;;;;;;5381453;26;20300;-76
2024/04/09 08:30:14;;;;;;;0.30;0.30;;;;;;;;;;5357080;26;20788;-77
2024/04/09 08:32:41;;;;;;;0.30;0.30;;;;;;;;;;5348923;26;20342;-73
2024/04/09 08:35:08;;;;;;;0.30;0.30;;;;;;;;;;5352849;26;20259;-76
2024/04/09 08:37:35;;;;;;;0.30;0.30;;;;;;;;;;5374042;26;20289;-76
2024/04/09 08:40:05;;;;;;;0.30;0.30;;;;;;;;;;5346334;26;20266;-73
2024/04/09 08:42:35;;;;;;;0.30;0.30;;;;;;;;;;5365154;26;20262;-73
2024/04/09 08:45:16;;;;;;;0.30;0.30;;;;;;;;;;5378678;26;20262;-74
2024/04/09 08:47:44;;;;;;;0.30;0.30;;;;;;;;;;5377466;26;20274;-74
2024/04/09 08:50:12;;;;;;;0.30;0.30;;;;;;;;;;5356833;26;20302;-74
2024/04/09 08:52:40;;;;;;;0.30;0.30;;;;;;;;;;5352393;26;20354;-76
2024/04/09 08:55:08;;;;;;;0.30;0.30;;;;;;;;;;5357379;26;20254;-75
2024/04/09 08:57:38;;;;;;;0.30;0.30;;;;;;;;;;5356244;26;20292;-76
2024/04/09 09:00:06;;;;;;;0.30;0.30;;;;;;;;;;5358170;26;20382;-74
2024/04/09 09:02:37;;;;;;;0.30;0.30;;;;;;;;;;5366619;26;20566;-75
2024/04/09 09:05:03;;;;;;;0.30;0.30;;;;;;;;;;5350832;26;20262;-74
2024/04/09 09:07:35;;;;;;;0.30;0.30;;;;;;;;;;5359878;26;20261;-75
2024/04/09 09:10:03;;;;;;;0.30;0.30;;;;;;;;;;5359802;26;20640;-75
2024/04/09 09:12:30;;;;;;;0.30;0.30;;;;;;;;;;5358211;26;20689;-73
2024/04/09 09:15:00;;;;;;;0.30;0.30;;;;;;;;;;5373030;26;20257;-75
2024/04/09 09:17:31;;;;;;;0.30;0.30;;;;;;;;;;5361664;26;20857;-75
2024/04/09 09:20:08;;;;;;;0.20;0.20;;;;;;;;;;5360124;26;20301;-76
2024/04/09 09:22:46;;;;;;;0.20;0.20;;;;;;;;;;5361527;26;20711;-74
2024/04/09 09:25:18;;;;;;;0.30;0.30;;;;;;;;;;5365156;26;20254;-73
2024/04/09 09:27:45;;;;;;;0.30;0.30;;;;;;;;;;5372635;26;20320;-76
2024/04/09 09:30:14;;;;;;;2.20;2.00;;;;;;;;;;5359066;26;20315;-75
2024/04/09 09:32:46;;;;;;;0.30;0.30;;;;;;;;;;5359734;26;20323;-73
2024/04/09 09:35:17;;;;;;;0.30;0.30;;;;;;;;;;5359217;26;20302;-76
2024/04/09 09:37:48;;;;;;;0.20;0.20;;;;;;;;;;5356201;26;20301;-75
2024/04/09 09:40:16;;;;;;;0.30;0.30;;;;;;;;;;5360485;26;20865;-74
2024/04/09 09:42:47;;;;;;;0.30;0.30;;;;;;;;;;5364770;26;20741;-72
2024/04/09 09:45:14;;;;;;;0.20;0.20;;;;;;;;;;5365589;26;20305;-73
2024/04/09 09:47:41;;;;;;;0.30;0.30;;;;;;;;;;5359181;26;20355;-73
2024/04/09 09:50:11;;;;;;;0.30;0.30;;;;;;;;;;5368600;26;20276;-76
2024/04/09 09:52:45;;;;;;;0.30;0.30;;;;;;;;;;5370409;26;20273;-75
2024/04/09 09:55:12;;;;;;;0.30;0.30;;;;;;;;;;5355125;26;20346;-75
2024/04/09 09:57:44;;;;;;;0.30;0.30;;;;;;;;;;5353852;26;20269;-73
2024/04/09 10:00:15;;;;;;;0.30;0.30;;;;;;;;;;5361503;26;20330;-73
2024/04/09 10:02:43;;;;;;;0.20;0.20;;;;;;;;;;5358626;26;20262;-74
2024/04/09 10:05:18;;;;;;;0.30;0.30;;;;;;;;;;5359278;26;20703;-75
2024/04/09 10:07:49;;;;;;;0.30;0.30;;;;;;;;;;5360112;26;20255;-74
2024/04/09 10:10:26;;;;;;;0.30;0.30;;;;;;;;;;5360900;26;20293;-73
2024/04/09 10:12:58;;;;;;;0.20;0.20;;;;;;;;;;5361554;26;20300;-74
2024/04/09 10:15:26;;;;;;;0.20;0.20;;;;;;;;;;5394033;26;20802;-73
2024/04/09 10:18:04;;;;;;;0.30;0.30;;;;;;;;;;5364395;26;20362;-75
2024/04/09 10:20:36;;;;;;;0.30;0.30;;;;;;;;;;5364498;26;20259;-75
2024/04/09 10:23:06;;;;;;;0.30;0.30;;;;;;;;;;5374817;26;20288;-74
2024/04/09 10:25:39;;;;;;;0.30;0.30;;;;;;;;;;5368355;26;20262;-75
2024/04/09 10:28:10;;;;;;;0.30;0.30;;;;;;;;;;5359238;26;20262;-74
2024/04/09 10:30:39;;;;;;;0.30;0.30;;;;;;;;;;5352471;26;20295;-76
2024/04/09 10:33:11;;;;;;;0.30;0.30;;;;;;;;;;5378291;26;20826;-76
2024/04/09 10:35:43;;;;;;;0.30;0.30;;;;;;;;;;5359734;26;20262;-75
2024/04/09 10:38:10;;;;;;;0.30;0.30;;;;;;;;;;5358838;26;20778;-76
2024/04/09 10:40:37;;;;;;;0.30;0.30;;;;;;;;;;5351384;26;20259;-75
2024/04/09 10:43:07;;;;;;;0.30;0.30;;;;;;;;;;5382700;26;20254;-75
2024/04/09 10:45:35;;;;;;;0.30;0.30;;;;;;;;;;5361690;26;20261;-75
2024/04/09 10:48:21;;;;;;;0.20;0.20;;;;;;;;;;5361005;26;20258;-76
2024/04/09 10:50:48;;;;;;;0.30;0.30;;;;;;;;;;5358554;26;20262;-76
2024/04/09 10:53:15;;;;;;;0.30;0.30;;;;;;;;;;5372177;26;20305;-75
2024/04/09 10:55:42;;;;;;;0.33;0.33;;;;;;;;;;5357762;26;20310;-75
2024/04/09 10:58:14;;;;;;;0.30;0.30;;;;;;;;;;5360620;26;20293;-76
2024/04/09 11:00:51;;;;;;;0.30;0.30;;;;;;;;;;5360137;26;20309;-75
2024/04/09 11:03:20;;;;;;;0.20;0.20;;;;;;;;;;5354119;26;20321;-76
2024/04/09 11:05:52;;;;;;;0.30;0.30;;;;;;;;;;5350179;26;20272;-77
2024/04/09 11:08:31;;;;;;;0.30;0.30;;;;;;;;;;5352189;26;20266;-75
2024/04/09 11:11:02;;;;;;;0.30;0.30;;;;;;;;;;5387939;26;20386;-74
2024/04/09 11:13:30;;;;;;;0.20;0.20;;;;;;;;;;5351499;26;20259;-73
2024/04/09 11:15:57;;;;;;;0.20;0.20;;;;;;;;;;5356483;26;20368;-75
2024/04/09 11:18:24;;;;;;;0.30;0.30;;;;;;;;;;5359109;26;20274;-76
2024/04/09 11:20:55;;;;;;;0.30;0.30;;;;;;;;;;5359794;26;20340;-75
2024/04/09 11:23:25;;;;;;;0.20;0.20;;;;;;;;;;5357990;26;20254;-74
2024/04/09 11:25:55;;;;;;;0.30;0.30;;;;;;;;;;5359086;26;20310;-74
2024/04/09 11:28:22;;;;;;;0.30;0.30;;;;;;;;;;5356555;26;20324;-74
2024/04/09 11:30:55;;;;;;;0.30;0.30;;;;;;;;;;5360588;26;20258;-74
2024/04/09 11:33:24;;;;;;;0.20;0.20;;;;;;;;;;5356423;26;20257;-74
2024/04/09 11:35:59;;;;;;;0.30;0.30;;;;;;;;;;5358398;26;21832;-74
2024/04/09 11:38:35;;;;;;;0.30;0.30;;;;;;;;;;5360036;26;20840;-75
2024/04/09 11:41:02;;;;;;;0.27;0.27;;;;;;;;;;5360696;26;20269;-74
2024/04/09 11:43:30;;;;;;;0.30;0.30;;;;;;;;;;5359875;26;20746;-76
2024/04/09 11:45:59;;;;;;;0.20;0.20;;;;;;;;;;5360697;26;20267;-75
2024/04/09 11:48:26;;;;;;;0.30;0.30;;;;;;;;;;5385732;26;20785;-75
2024/04/09 11:50:52;;;;;;;0.30;0.30;;;;;;;;;;5363329;26;20288;-75
2024/04/09 11:53:19;;;;;;;0.47;0.47;;;;;;;;;;5357661;26;20270;-74
2024/04/09 11:55:49;;;;;;;0.30;0.30;;;;;;;;;;5357051;26;20253;-75
2024/04/09 11:58:17;;;;;;;0.50;0.50;;;;;;;;;;5382935;26;20296;-74
2024/04/09 12:00:44;;;;;;;0.30;0.30;;;;;;;;;;5361530;26;20597;-75
2024/04/09 12:03:11;;;;;;;0.30;0.30;;;;;;;;;;5349826;26;20326;-76
2024/04/09 12:05:38;;;;;;;0.30;0.30;;;;;;;;;;5356360;26;20259;-75
2024/04/09 12:08:06;;;;;;;0.27;0.27;;;;;;;;;;5354719;26;20743;-74
2024/04/09 12:10:34;;;;;;;0.30;0.30;;;;;;;;;;5356779;26;20249;-75
2024/04/09 12:13:01;;;;;;;0.20;0.20;;;;;;;;;;5371354;26;20321;-76
2024/04/09 12:15:30;;;;;;;0.30;0.30;;;;;;;;;;5353950;26;20255;-75
2024/04/09 12:17:57;;;;;;;0.30;0.30;;;;;;;;;;5384183;26;20296;-75
2024/04/09 12:20:25;;;;;;;0.30;0.30;;;;;;;;;;5379527;26;20296;-73
2024/04/09 12:22:54;;;;;;;0.30;0.30;;;;;;;;;;5355142;26;20322;-74
2024/04/09 12:25:21;;;;;;;0.20;0.20;;;;;;;;;;5354671;26;20330;-73
2024/04/09 12:27:48;;;;;;;0.30;0.30;;;;;;;;;;5354633;26;20271;-74
2024/04/09 12:30:15;;;;;;;0.30;0.30;;;;;;;;;;5361766;26;20262;-73
2024/04/09 12:32:42;;;;;;;0.23;0.23;;;;;;;;;;5360287;26;20312;-74
2024/04/09 12:35:10;;;;;;;0.20;0.20;;;;;;;;;;5362117;26;20311;-74
2024/04/09 12:37:37;;;;;;;0.30;0.30;;;;;;;;;;5359707;26;20262;-74
2024/04/09 12:40:03;;;;;;;0.30;0.30;;;;;;;;;;5359555;26;22611;-72
2024/04/09 12:42:30;;;;;;;0.30;0.30;;;;;;;;;;5359604;26;20265;-73
2024/04/09 12:44:57;;;;;;;0.30;0.30;;;;;;;;;;5360209;26;20367;-72
2024/04/09 12:47:24;;;;;;;0.30;0.30;;;;;;;;;;5357503;26;20296;-73
2024/04/09 12:49:51;;;;;;;0.20;0.20;;;;;;;;;;5390992;26;20273;-73
2024/04/09 12:52:18;;;;;;;0.30;0.30;;;;;;;;;;5364135;26;20259;-78
2024/04/09 12:54:44;;;;;;;0.20;0.20;;;;;;;;;;5362394;26;20262;-73
2024/04/09 12:57:11;;;;;;;0.30;0.30;;;;;;;;;;5363676;26;20257;-75
2024/04/09 12:59:38;;;;;;;0.23;0.23;;;;;;;;;;5356531;26;20271;-72
2024/04/09 13:02:24;;;;;;;0.30;0.30;;;;;;;;;;5356236;26;20265;-75
2024/04/09 13:05:16;;;;;;;0.30;0.30;;;;;;;;;;5392325;26;20671;-74
2024/04/09 13:07:44;;;;;;;0.30;0.30;;;;;;;;;;5363069;26;20289;-73
2024/04/09 13:10:10;;;;;;;0.30;0.30;;;;;;;;;;5355793;26;20276;-74
2024/04/09 13:12:37;;;;;;;0.30;0.30;;;;;;;;;;5356237;26;21553;-74
2024/04/09 13:15:04;;;;;;;0.30;0.30;;;;;;;;;;5361593;26;20588;-73
2024/04/09 13:17:51;;;;;;;0.30;0.30;;;;;;;;;;5361859;26;20269;-74
2024/04/09 13:20:17;;;;;;;0.20;0.20;;;;;;;;;;5360117;26;20677;-72
2024/04/09 13:22:44;;;;;;;0.30;0.30;;;;;;;;;;5359910;26;20259;-73
2024/04/09 13:25:10;;;;;;;0.30;0.30;;;;;;;;;;5363937;26;20850;-73
2024/04/09 13:27:37;;;;;;;0.80;0.80;;;;;;;;;;5357997;26;20259;-73
2024/04/09 13:30:04;;;;;;;0.40;0.40;;;;;;;;;;5362944;26;20266;-73
2024/04/09 13:32:31;;;;;;;0.30;0.30;;;;;;;;;;5362596;26;20305;-73
2024/04/09 13:34:58;;;;;;;0.30;0.30;;;;;;;;;;5370010;26;20258;-73
2024/04/09 13:37:24;;;;;;;0.30;0.30;;;;;;;;;;5359988;26;20266;-73
2024/04/09 13:39:51;;;;;;;0.30;0.30;;;;;;;;;;5359133;26;20330;-74
2024/04/09 13:42:17;;;;;;;0.20;0.20;;;;;;;;;;5363840;26;20310;-77
2024/04/09 13:44:44;;;;;;;0.30;0.30;;;;;;;;;;5361898;26;20616;-72
2024/04/09 13:47:11;;;;;;;0.30;0.30;;;;;;;;;;5357035;26;20357;-73
2024/04/09 13:49:37;;;;;;;0.20;0.20;;;;;;;;;;5360813;26;20275;-73
2024/04/09 13:52:04;;;;;;;0.20;0.20;;;;;;;;;;5357401;26;20715;-73
2024/04/09 13:54:31;;;;;;;0.30;0.30;;;;;;;;;;5349721;26;20746;-73
2024/04/09 13:56:57;;;;;;;0.20;0.20;;;;;;;;;;5354340;26;20301;-74
2024/04/09 13:59:24;;;;;;;0.77;0.77;;;;;;;;;;5358125;26;20354;-73
2024/04/09 14:01:51;;;;;;;0.30;0.30;;;;;;;;;;5371886;26;20772;-75
2024/04/09 14:04:18;;;;;;;0.30;0.30;;;;;;;;;;5353758;26;20619;-74
2024/04/09 14:06:44;;;;;;;0.30;0.30;;;;;;;;;;5371460;26;20361;-74
2024/04/09 14:09:13;;;;;;;0.30;0.30;;;;;;;;;;5361540;26;20320;-74
2024/04/09 14:11:40;;;;;;;0.30;0.30;;;;;;;;;;5356850;26;20302;-74
2024/04/09 14:14:07;;;;;;;0.30;0.30;;;;;;;;;;5354368;26;20265;-73
2024/04/09 14:16:34;;;;;;;0.30;0.30;;;;;;;;;;5350283;26;20803;-74
2024/04/09 14:19:00;;;;;;;0.20;0.20;;;;;;;;;;5355682;26;20309;-74
2024/04/09 14:21:28;;;;;;;0.30;0.30;;;;;;;;;;5379933;26;20353;-76
2024/04/09 14:23:54;;;;;;;0.30;0.30;;;;;;;;;;5358739;26;20625;-77
2024/04/09 14:26:21;;;;;;;0.27;0.27;;;;;;;;;;5356869;26;20297;-72
2024/04/09 14:28:51;;;;;;;0.20;0.20;;;;;;;;;;5358766;26;20344;-73
2024/04/09 14:31:20;;;;;;;0.30;0.30;;;;;;;;;;5365643;26;20657;-74
2024/04/09 14:33:46;;;;;;;0.30;0.30;;;;;;;;;;5357414;26;20650;-73
2024/04/09 14:36:13;;;;;;;0.27;0.27;;;;;;;;;;5354783;26;20257;-74
2024/04/09 14:38:40;;;;;;;0.30;0.30;;;;;;;;;;5388609;26;20303;-74
2024/04/09 14:41:08;;;;;;;0.30;0.30;;;;;;;;;;5361358;26;20300;-74
2024/04/09 14:43:36;;;;;;;0.33;0.33;;;;;;;;;;5361939;26;20271;-73
2024/04/09 14:46:03;;;;;;;0.20;0.20;;;;;;;;;;5359800;26;20600;-73
2024/04/09 14:48:29;;;;;;;0.30;0.30;;;;;;;;;;5359586;26;20315;-75
2024/04/09 14:50:56;;;;;;;0.30;0.30;;;;;;;;;;5363860;26;20259;-75